Hauptseite
METAR-TAF:

METAR-TAF

Flughäfen :

London City Airport

London, England

Breite: 51-30N, Länge: 000-03E, Höhe: 5 m

Beobachtung

Neuester Wetterbericht von vor 20 Minuten, um 06:50 UTC
Wind 15 kt aus West/Nordwest
Temperatur 9°C
Luftfeuchtigkeit 76%
Luftdruck 999 hPa
Sichtweite 10 km oder mehr
Aufgelockert bewölkt in der Höhe von 2200 ft
Durchbrochene Bewölkung in der Höhe von 4400 ft

METAR: EGLC 090650Z AUTO 29015KT 9999 SCT022 BKN044 09/05 Q0999

Zeit: 07:10 (07:10 UTC)

Prognose

Neuester Wetterbericht von vor 2 Stunden und 8 Minuten, um 05:02 UTC
Gültige Prognose vom 09 um 06 UTC bis 09 um 15 UTC
Wind 15 kt aus Nordwest, Böen bis zu 25 kt
Sichtweite 10 km oder mehr
Aufgelockert bewölkt in der Höhe von 2500 ft
Übergehend zu
vom 09 um 12 UTC bis 09 um 15 UTC
Wind 12 kt aus Nordwest

TAF: EGLC 090502Z 0906/0915 31015G25KT 9999 SCT025 BECMG 0912/0915 32012KT

Wetterbeobachtungen und Prognosen von mehr als 4000 Flughäfen (METAR und TAF Bericht).

Die verfügbaren Stationen werden durch gelbe und rote Markierungen auf der Karte dargestellt.

Führen Sie die Maus auf sie, um den Namen der Station zu sehen.

Darauf klicken, um die Beobachtung von Wetterbeobachtungen und Prognosen zu sehen.

Um die Karte zu ändern : klicken Sie auf den grünen Tasten mit einem schwarzen Kreuz Zum Vergrößern, auf den grünen Button mit einem Gedankenstrich zu verkleinern, oder auf die grünen Pfeile für benachbarte Karten.


METAR-TAF: